Time;durP1;ratioP1;P1;durP2;ratioP2;P2;SDS_P1;SDS_P2;PMS_P1;PMS_P2;Temp;Humidity;BMP_temperature;BMP_pressure;BME280_temperature;BME280_humidity;BME280_pressure;Samples;Min_cycle;Max_cycle;Signal;HPM_P1;HPM_P2
2023/11/17 00:02:17;;;;;;;2.03;1.48;;;;;;;-0.56;79.33;100626.50;5086349;28;20107;-67
2023/11/17 00:04:43;;;;;;;0.85;0.85;;;;;;;-0.51;79.28;100627.56;5085028;28;20082;-68
2023/11/17 00:07:08;;;;;;;0.85;0.80;;;;;;;-0.53;79.51;100621.53;5085764;28;20029;-67
2023/11/17 00:09:33;;;;;;;1.30;1.30;;;;;;;-0.46;79.58;100629.44;5085137;28;20024;-68
2023/11/17 00:11:59;;;;;;;7.93;1.05;;;;;;;-0.50;79.74;100619.09;5085981;28;20024;-68
2023/11/17 00:14:24;;;;;;;0.50;0.50;;;;;;;-0.50;79.62;100621.63;5086023;28;20375;-68
2023/11/17 00:16:49;;;;;;;0.90;0.80;;;;;;;-0.49;79.64;100627.63;5086216;28;20044;-68
2023/11/17 00:19:15;;;;;;;0.60;0.60;;;;;;;-0.43;79.75;100627.88;5084802;28;20027;-67
2023/11/17 00:21:40;;;;;;;0.52;0.52;;;;;;;-0.52;79.85;100625.84;5085996;28;20025;-67
2023/11/17 00:24:06;;;;;;;1.40;1.15;;;;;;;-0.43;79.85;100644.88;5085904;28;20028;-67
2023/11/17 00:26:33;;;;;;;0.63;0.63;;;;;;;-0.44;79.84;100632.91;5086048;28;20020;-67
2023/11/17 00:29:00;;;;;;;2.35;1.85;;;;;;;-0.48;80.08;100634.50;5085811;28;20021;-68
2023/11/17 00:31:25;;;;;;;0.50;0.50;;;;;;;-0.45;80.01;100652.47;5085792;28;20024;-67
2023/11/17 00:33:52;;;;;;;0.55;0.55;;;;;;;-0.45;80.03;100647.38;5085553;28;20025;-67
2023/11/17 00:36:17;;;;;;;0.60;0.60;;;;;;;-0.46;79.85;100630.28;5084051;28;20024;-67
2023/11/17 00:38:43;;;;;;;1.58;1.10;;;;;;;-0.48;79.73;100631.94;5085412;28;20016;-67
2023/11/17 00:41:09;;;;;;;1.52;1.38;;;;;;;-0.47;79.76;100632.78;5085926;28;20031;-68
2023/11/17 00:43:35;;;;;;;2.05;0.82;;;;;;;-0.37;79.89;100642.56;5085670;28;20084;-67
2023/11/17 00:46:00;;;;;;;1.67;1.55;;;;;;;-0.34;79.87;100635.03;5085557;28;20021;-68
2023/11/17 00:48:27;;;;;;;1.95;0.95;;;;;;;-0.40;79.95;100639.91;5085631;28;20103;-68
2023/11/17 00:50:53;;;;;;;0.70;0.70;;;;;;;-0.42;80.03;100641.50;5084075;28;20029;-68
2023/11/17 00:53:22;;;;;;;0.80;0.80;;;;;;;-0.32;79.90;100646.16;5083755;28;20057;-66
2023/11/17 00:55:54;;;;;;;1.05;0.90;;;;;;;-0.35;79.62;100657.94;5085768;28;20030;-67
2023/11/17 00:58:21;;;;;;;4.22;2.05;;;;;;;-0.41;79.91;100658.53;5085524;28;20017;-67
2023/11/17 01:00:46;;;;;;;1.15;1.15;;;;;;;-0.40;79.94;100658.59;5085306;28;20080;-68
2023/11/17 01:03:12;;;;;;;2.22;2.00;;;;;;;-0.42;80.00;100661.91;5085183;28;20024;-67
2023/11/17 01:05:38;;;;;;;2.17;1.95;;;;;;;-0.36;79.76;100662.16;5085223;28;20024;-66
2023/11/17 01:08:06;;;;;;;0.95;0.90;;;;;;;-0.30;79.75;100681.94;5085026;28;20028;-67
2023/11/17 01:10:34;;;;;;;4.57;0.90;;;;;;;-0.33;79.75;100667.38;5085672;28;20020;-67
2023/11/17 01:13:00;;;;;;;1.20;0.77;;;;;;;-0.46;79.68;100645.59;5085170;28;20028;-67
2023/11/17 01:15:25;;;;;;;1.50;1.35;;;;;;;-0.30;79.70;100681.94;5083861;28;20020;-68
2023/11/17 01:17:51;;;;;;;0.90;0.90;;;;;;;-0.42;79.92;100644.94;5085019;28;20023;-68
2023/11/17 01:20:16;;;;;;;0.50;0.50;;;;;;;-0.37;79.98;100660.44;5085104;28;20373;-66
2023/11/17 01:22:41;;;;;;;1.42;1.23;;;;;;;-0.42;79.98;100649.16;5085025;28;20025;-68
2023/11/17 01:25:07;;;;;;;0.82;0.70;;;;;;;-0.31;79.60;100673.44;5085250;28;20028;-67
2023/11/17 01:27:32;;;;;;;0.50;0.50;;;;;;;-0.26;79.42;100663.41;5084844;28;20089;-67
2023/11/17 01:29:58;;;;;;;3.00;1.85;;;;;;;-0.36;79.61;100651.94;5085161;28;20024;-67
2023/11/17 01:32:24;;;;;;;0.55;0.55;;;;;;;-0.36;79.77;100667.25;5085139;28;20042;-68
2023/11/17 01:34:49;;;;;;;0.70;0.70;;;;;;;-0.40;79.98;100656.06;5084856;28;20096;-68
2023/11/17 01:37:14;;;;;;;1.90;1.40;;;;;;;-0.54;79.61;100637.63;5084874;28;20023;-67
2023/11/17 01:39:40;;;;;;;1.50;1.30;;;;;;;-0.27;79.82;100667.63;5085016;28;20024;-68
2023/11/17 01:42:05;;;;;;;0.77;0.77;;;;;;;-0.28;79.35;100671.00;5084928;28;20092;-67
2023/11/17 01:44:31;;;;;;;1.27;1.15;;;;;;;-0.35;79.71;100679.19;5083528;28;20576;-68
2023/11/17 01:46:57;;;;;;;1.13;1.02;;;;;;;-0.42;80.10;100683.19;5084930;28;20501;-67
2023/11/17 01:49:22;;;;;;;1.05;0.95;;;;;;;-0.45;80.17;100677.09;5086651;28;20025;-67
2023/11/17 01:51:50;;;;;;;0.50;0.50;;;;;;;-0.37;79.83;100665.53;5087418;28;20029;-68
2023/11/17 01:54:16;;;;;;;1.02;0.93;;;;;;;-0.39;79.93;100675.69;5088627;28;20016;-67
2023/11/17 01:56:42;;;;;;;0.70;0.70;;;;;;;-0.38;80.02;100691.81;5088627;28;20025;-67
2023/11/17 01:59:07;;;;;;;0.70;0.70;;;;;;;-0.35;80.13;100680.91;5088849;28;20017;-67
2023/11/17 02:01:34;;;;;;;0.77;0.77;;;;;;;-0.35;80.10;100680.91;5088753;28;20526;-66
2023/11/17 02:04:00;;;;;;;0.73;0.73;;;;;;;-0.36;80.15;100687.66;5087171;28;20457;-67
2023/11/17 02:06:37;;;;;;;0.95;0.77;;;;;;;-0.42;80.19;100677.22;5088674;28;20051;-67
2023/11/17 02:09:24;;;;;;;0.40;0.40;;;;;;;-0.40;80.14;100680.72;5088503;28;20132;-68
2023/11/17 02:12:00;;;;;;;0.65;0.65;;;;;;;-0.44;80.09;100673.72;5088487;28;20028;-67
2023/11/17 02:14:32;;;;;;;1.02;0.80;;;;;;;-0.48;80.19;100682.94;5088632;28;20016;-68
2023/11/17 02:17:00;;;;;;;;;;;;;;;-0.35;80.19;100694.50;5088887;28;20035;-65
2023/11/17 02:19:35;;;;;;;1.38;0.80;;;;;;;-0.44;80.19;100674.59;5088099;28;20332;-66
2023/11/17 02:22:06;;;;;;;0.65;0.65;;;;;;;-0.47;80.18;100658.28;5088302;28;20554;-66
2023/11/17 02:24:42;;;;;;;2.05;1.95;;;;;;;-0.49;80.38;100665.88;5086687;28;20025;-67
2023/11/17 02:27:28;;;;;;;0.50;0.50;;;;;;;-0.45;80.51;100683.06;5087686;28;20638;-67
2023/11/17 02:30:02;;;;;;;1.42;1.42;;;;;;;-0.46;80.53;100667.72;5086500;28;20028;-67
2023/11/17 02:32:29;;;;;;;0.60;0.60;;;;;;;-0.47;80.55;100676.16;5086945;28;20081;-67
2023/11/17 02:34:55;;;;;;;0.77;0.77;;;;;;;-0.41;80.57;100687.47;5087997;28;20020;-67
2023/11/17 02:37:24;;;;;;;3.25;1.13;;;;;;;-0.46;80.53;100690.66;5087746;28;20076;-67
2023/11/17 02:39:59;;;;;;;3.40;1.15;;;;;;;-0.40;80.56;100698.56;5087768;28;20028;-66
2023/11/17 02:42:24;;;;;;;2.13;1.10;;;;;;;-0.39;80.30;100693.53;5087692;28;20114;-66
2023/11/17 02:44:50;;;;;;;0.60;0.60;;;;;;;-0.47;80.63;100688.91;5086493;28;20036;-67
2023/11/17 02:47:30;;;;;;;7.72;1.98;;;;;;;-0.47;80.64;100701.66;5087575;28;20031;-66
2023/11/17 02:50:00;;;;;;;2.13;1.33;;;;;;;-0.51;80.63;100693.88;5087618;28;20032;-67
2023/11/17 02:52:42;;;;;;;1.20;1.15;;;;;;;-0.50;80.68;100695.59;5086086;28;20120;-66
2023/11/17 02:55:13;;;;;;;;;;;;;;;-0.47;80.46;100709.31;5087995;28;20028;-66
2023/11/17 02:57:40;;;;;;;0.70;0.70;;;;;;;-0.56;80.31;100695.34;5087667;28;19940;-67
2023/11/17 03:00:09;;;;;;;0.77;0.77;;;;;;;-0.56;80.81;100695.34;5087131;28;20097;-66
2023/11/17 03:02:39;;;;;;;0.95;0.90;;;;;;;-0.54;80.97;100709.06;5087305;28;20021;-66
2023/11/17 03:05:06;;;;;;;1.10;1.05;;;;;;;-0.54;80.79;100703.94;5086277;28;20048;-66
2023/11/17 03:07:33;;;;;;;1.67;1.58;;;;;;;-0.59;80.85;100697.78;5087054;28;20043;-66
2023/11/17 03:09:58;;;;;;;0.52;0.52;;;;;;;-0.59;80.99;100692.69;5087235;28;20024;-66
2023/11/17 03:12:27;;;;;;;1.35;1.30;;;;;;;-0.57;80.85;100706.38;5087085;28;20055;-67
2023/11/17 03:14:53;;;;;;;1.40;0.93;;;;;;;-0.69;80.99;100677.81;5085940;28;20040;-67
2023/11/17 03:17:18;;;;;;;2.58;1.85;;;;;;;-0.51;80.74;100706.63;5087425;28;20027;-66
2023/11/17 03:19:44;;;;;;;1.38;0.93;;;;;;;-0.67;80.74;100688.97;5086955;28;20040;-66
2023/11/17 03:22:13;;;;;;;0.65;0.65;;;;;;;-0.56;80.73;100705.56;5085759;28;20031;-66
2023/11/17 03:24:41;;;;;;;0.65;0.65;;;;;;;-0.62;80.86;100712.97;5087064;28;20066;-66
2023/11/17 03:27:07;;;;;;;2.85;1.35;;;;;;;-0.64;80.87;100706.94;5087056;28;20064;-67
2023/11/17 03:29:32;;;;;;;0.70;0.70;;;;;;;-0.62;80.86;100710.41;5086810;28;20021;-66
2023/11/17 03:31:58;;;;;;;0.93;0.93;;;;;;;-0.63;81.02;100709.56;5085747;28;20021;-66
2023/11/17 03:34:31;;;;;;;0.70;0.70;;;;;;;-0.67;81.03;100711.91;5086341;28;20028;-67
2023/11/17 03:37:01;;;;;;;1.13;1.02;;;;;;;-0.63;80.85;100718.88;5086885;28;20021;-66
2023/11/17 03:39:31;;;;;;;1.35;1.25;;;;;;;-0.68;80.94;100712.69;5085405;28;20491;-66
2023/11/17 03:41:58;;;;;;;0.88;0.80;;;;;;;-0.67;81.00;100722.13;5085347;28;20051;-67
2023/11/17 03:44:24;;;;;;;0.50;0.50;;;;;;;-0.64;80.74;100709.50;5086677;28;20079;-68
2023/11/17 03:46:58;;;;;;;0.90;0.90;;;;;;;-0.69;81.06;100724.59;5085326;28;20027;-67
2023/11/17 03:49:25;;;;;;;7.85;2.15;;;;;;;-0.71;80.90;100718.56;5085324;28;20088;-67
2023/11/17 03:51:52;;;;;;;1.05;0.95;;;;;;;-0.72;81.09;100713.38;5086596;28;20024;-67
2023/11/17 03:54:21;;;;;;;1.00;0.90;;;;;;;-0.70;81.21;100721.97;5084938;28;20115;-67
2023/11/17 03:56:52;;;;;;;0.50;0.50;;;;;;;-0.67;81.19;100717.88;5085022;28;20032;-66
2023/11/17 03:59:18;;;;;;;0.82;0.82;;;;;;;-0.68;80.95;100718.69;5086377;28;20024;-66
2023/11/17 04:01:44;;;;;;;0.50;0.50;;;;;;;-0.72;81.08;100724.47;5086288;28;20017;-67
2023/11/17 04:04:10;;;;;;;0.63;0.63;;;;;;;-0.71;81.05;100721.09;5086098;28;20036;-67
2023/11/17 04:06:36;;;;;;;0.50;0.50;;;;;;;-0.71;81.47;100722.75;5086119;28;20016;-66
2023/11/17 04:09:04;;;;;;;0.60;0.60;;;;;;;-0.75;81.16;100727.75;5085833;28;20385;-66
2023/11/17 04:11:31;;;;;;;2.95;0.85;;;;;;;-0.70;81.23;100724.53;5085243;28;20028;-67
2023/11/17 04:13:57;;;;;;;0.68;0.68;;;;;;;-0.73;81.26;100726.91;5086038;28;20034;-67
2023/11/17 04:16:22;;;;;;;3.10;2.88;;;;;;;-0.70;81.27;100722.84;5086153;28;20084;-66
2023/11/17 04:18:47;;;;;;;0.57;0.57;;;;;;;-0.69;81.30;100728.81;5086095;28;20019;-67
2023/11/17 04:21:13;;;;;;;2.08;0.80;;;;;;;-0.74;81.53;100731.16;5085944;28;20021;-67
2023/11/17 04:23:39;;;;;;;0.60;0.60;;;;;;;-0.65;81.05;100729.00;5085285;28;20438;-67
2023/11/17 04:26:05;;;;;;;1.30;1.30;;;;;;;-0.65;81.74;100730.69;5085882;28;20024;-66
2023/11/17 04:28:31;;;;;;;0.57;0.57;;;;;;;-0.64;81.29;100722.25;5085359;28;20091;-66
2023/11/17 04:30:57;;;;;;;0.90;0.90;;;;;;;-0.69;81.37;100733.91;5085710;28;20017;-67
2023/11/17 04:33:23;;;;;;;1.33;1.23;;;;;;;-0.66;81.32;100740.03;5085672;28;20032;-66
2023/11/17 04:35:49;;;;;;;1.60;1.50;;;;;;;-0.67;81.43;100737.41;5085554;28;20028;-66
2023/11/17 04:38:14;;;;;;;0.50;0.50;;;;;;;-0.64;81.47;100750.28;5084112;28;20026;-66
2023/11/17 04:40:40;;;;;;;0.80;0.80;;;;;;;-0.69;81.49;100747.53;5085337;28;20020;-67
2023/11/17 04:43:06;;;;;;;0.88;0.88;;;;;;;-0.69;81.45;100746.66;5085532;28;20029;-67
2023/11/17 04:45:36;;;;;;;0.55;0.55;;;;;;;-0.70;81.56;100755.13;5084245;28;20028;-66
2023/11/17 04:48:04;;;;;;;0.88;0.88;;;;;;;-0.73;81.34;100760.06;5084005;28;20055;-68
2023/11/17 04:50:31;;;;;;;0.80;0.80;;;;;;;-0.77;81.53;100751.44;5085444;28;20039;-67
2023/11/17 04:52:56;;;;;;;1.13;1.02;;;;;;;-0.71;81.55;100761.00;5085062;28;20088;-66
2023/11/17 04:55:22;;;;;;;0.73;0.73;;;;;;;-0.73;81.44;100757.53;5085217;28;20024;-66
2023/11/17 04:57:47;;;;;;;0.82;0.82;;;;;;;-0.72;81.76;100770.38;5085083;28;20388;-66
2023/11/17 05:00:13;;;;;;;1.13;1.08;;;;;;;-0.65;81.53;100771.47;5085152;28;20020;-67
2023/11/17 05:02:41;;;;;;;0.60;0.60;;;;;;;-0.68;81.31;100771.34;5085155;28;20513;-67
2023/11/17 05:05:10;;;;;;;2.15;1.15;;;;;;;-0.71;81.57;100766.13;5085122;28;20032;-66
2023/11/17 05:07:37;;;;;;;1.30;1.20;;;;;;;-0.72;81.53;100751.63;5083508;28;20024;-65
2023/11/17 05:10:05;;;;;;;1.05;1.02;;;;;;;-0.86;81.62;100734.03;5085106;28;20029;-67
2023/11/17 05:12:30;;;;;;;1.33;1.02;;;;;;;-0.82;81.69;100753.78;5084945;28;20026;-66
2023/11/17 05:14:56;;;;;;;0.60;0.60;;;;;;;-0.77;81.71;100765.03;5085096;28;20111;-67
2023/11/17 05:17:22;;;;;;;0.95;0.65;;;;;;;-0.73;81.74;100754.97;5085050;28;20016;-67
2023/11/17 05:19:47;;;;;;;1.13;1.05;;;;;;;-0.77;81.63;100767.59;5085256;28;20491;-67
2023/11/17 05:22:14;;;;;;;0.52;0.52;;;;;;;-0.77;81.77;100765.03;5084993;28;20051;-67
2023/11/17 05:24:40;;;;;;;0.65;0.65;;;;;;;-0.81;81.77;100763.16;5084686;28;20028;-67
2023/11/17 05:27:05;;;;;;;0.50;0.50;;;;;;;-0.90;81.90;100765.31;5084420;28;20056;-66
2023/11/17 05:29:30;;;;;;;0.55;0.55;;;;;;;-0.82;82.07;100774.19;5084677;28;20419;-67
2023/11/17 05:31:56;;;;;;;0.50;0.50;;;;;;;-0.83;82.20;100772.41;5084655;28;20028;-66
2023/11/17 05:34:21;;;;;;;0.80;0.80;;;;;;;-0.86;82.01;100781.63;5084516;28;20046;-66
2023/11/17 05:36:47;;;;;;;0.60;0.60;;;;;;;-0.79;81.74;100774.31;5084846;28;20446;-67
2023/11/17 05:39:13;;;;;;;0.98;0.95;;;;;;;-0.88;82.02;100790.06;5083634;28;20021;-66
2023/11/17 05:41:41;;;;;;;6.03;1.80;;;;;;;-0.87;81.95;100790.94;5084809;28;20017;-67
2023/11/17 05:44:08;;;;;;;1.00;1.00;;;;;;;-0.80;82.43;100797.19;5084831;28;20025;-67
2023/11/17 05:46:34;;;;;;;0.75;0.75;;;;;;;-0.88;82.32;100776.47;5084744;28;20028;-67
2023/11/17 05:48:59;;;;;;;0.77;0.73;;;;;;;-0.80;82.10;100808.25;5083219;28;20024;-67
2023/11/17 05:51:25;;;;;;;0.50;0.50;;;;;;;-0.86;82.47;100791.81;5084710;28;20072;-67
2023/11/17 05:53:51;;;;;;;1.02;1.02;;;;;;;-0.89;82.40;100793.41;5084483;28;20024;-67
2023/11/17 05:56:17;;;;;;;1.13;1.13;;;;;;;-0.88;82.13;100784.09;5083281;28;20084;-68
2023/11/17 05:58:43;;;;;;;0.50;0.50;;;;;;;-0.83;82.49;100791.97;5083027;28;20021;-67
2023/11/17 06:01:08;;;;;;;0.52;0.52;;;;;;;-0.88;82.43;100784.97;5084735;28;20048;-68
2023/11/17 06:03:35;;;;;;;0.50;0.50;;;;;;;-0.81;82.51;100800.53;5084311;28;20075;-68
2023/11/17 06:06:02;;;;;;;0.55;0.55;;;;;;;-0.83;82.38;100784.31;5083492;28;20028;-68
2023/11/17 06:08:31;;;;;;;1.77;1.67;;;;;;;-0.81;82.53;100800.53;5084412;28;20012;-68
2023/11/17 06:11:00;;;;;;;0.82;0.82;;;;;;;-0.81;82.44;100803.97;5084662;28;20025;-66
2023/11/17 06:13:25;;;;;;;0.82;0.82;;;;;;;-0.80;82.59;100822.69;5084606;28;20108;-66
2023/11/17 06:15:50;;;;;;;4.57;3.45;;;;;;;-0.76;82.61;100817.78;5084390;28;20055;-66
2023/11/17 06:18:16;;;;;;;0.90;0.90;;;;;;;-0.79;82.50;100807.47;5084502;28;20079;-66
2023/11/17 06:20:42;;;;;;;0.50;0.50;;;;;;;-0.82;82.60;100811.53;5084459;28;20031;-66
2023/11/17 06:23:08;;;;;;;0.73;0.73;;;;;;;-0.78;82.66;100821.94;5084635;28;20016;-65
2023/11/17 06:25:34;;;;;;;0.55;0.55;;;;;;;-0.82;82.82;100820.06;5084380;28;20031;-67
2023/11/17 06:27:59;;;;;;;1.98;1.85;;;;;;;-0.75;82.94;100821.19;5084270;28;20290;-66
2023/11/17 06:30:25;;;;;;;0.50;0.50;;;;;;;-0.72;82.84;100826.47;5084644;28;20117;-66
2023/11/17 06:32:51;;;;;;;1.48;1.17;;;;;;;-0.79;82.74;100827.84;5084659;28;20024;-67
2023/11/17 06:35:16;;;;;;;0.50;0.50;;;;;;;-0.78;82.78;100827.03;5085874;28;20021;-66
2023/11/17 06:37:42;;;;;;;0.50;0.50;;;;;;;-0.73;82.85;100849.31;5087922;28;20028;-66
2023/11/17 06:40:09;;;;;;;3.22;1.45;;;;;;;-0.66;82.27;100847.13;5088296;28;20028;-66
2023/11/17 06:42:35;;;;;;;0.50;0.50;;;;;;;-0.73;82.69;100859.50;5088071;28;20017;-66
2023/11/17 06:45:01;;;;;;;0.57;0.57;;;;;;;-0.73;82.74;100855.28;5088035;28;20028;-67
2023/11/17 06:47:26;;;;;;;1.02;1.02;;;;;;;-0.78;82.92;100851.66;5088098;28;20025;-66
2023/11/17 06:49:52;;;;;;;0.75;0.75;;;;;;;-0.79;82.99;100873.75;5086179;28;20085;-65
2023/11/17 06:52:18;;;;;;;0.60;0.60;;;;;;;-0.75;83.02;100870.53;5087374;28;20380;-66
2023/11/17 06:54:44;;;;;;;0.70;0.70;;;;;;;-0.79;83.01;100866.09;5087626;28;20084;-65
2023/11/17 06:57:10;;;;;;;0.65;0.63;;;;;;;-0.77;83.28;100858.53;5087882;28;20044;-66
2023/11/17 06:59:36;;;;;;;0.80;0.60;;;;;;;-0.78;83.38;100866.94;5087691;28;20305;-67
2023/11/17 07:02:03;;;;;;;0.50;0.50;;;;;;;-0.77;83.32;100859.38;5087545;28;20546;-66
2023/11/17 07:04:30;;;;;;;0.75;0.75;;;;;;;-0.78;83.26;100860.19;5087849;28;20346;-65
2023/11/17 07:06:55;;;;;;;1.33;1.30;;;;;;;-0.68;83.59;100870.81;5087521;28;20025;-66
2023/11/17 07:09:23;;;;;;;1.08;1.02;;;;;;;-0.77;83.27;100851.72;5087659;28;20083;-66
2023/11/17 07:11:51;;;;;;;1.65;1.55;;;;;;;-0.64;83.37;100870.16;5086319;28;20048;-66
2023/11/17 07:14:19;;;;;;;1.73;1.65;;;;;;;-0.61;83.32;100875.38;5087397;28;20024;-66
2023/11/17 07:16:45;;;;;;;2.25;2.15;;;;;;;-0.58;83.36;100875.53;5086127;28;20017;-67
2023/11/17 07:19:16;;;;;;;1.00;1.00;;;;;;;-0.60;83.35;100874.56;5087226;28;20072;-66
2023/11/17 07:21:42;;;;;;;0.85;0.82;;;;;;;-0.52;83.49;100888.56;5086204;28;20387;-66
2023/11/17 07:24:10;;;;;;;1.13;1.13;;;;;;;-0.53;83.44;100873.19;5087058;28;20028;-65
2023/11/17 07:26:36;;;;;;;5.75;2.65;;;;;;;-0.46;83.22;100877.75;5087006;28;20023;-66
2023/11/17 07:29:03;;;;;;;0.75;0.73;;;;;;;-0.46;83.12;100879.44;5085737;28;20024;-66
2023/11/17 07:31:29;;;;;;;1.67;1.58;;;;;;;-0.48;83.25;100876.81;5085962;28;20024;-66
2023/11/17 07:33:55;;;;;;;0.70;0.70;;;;;;;-0.44;83.28;100885.47;5085536;28;20036;-66
2023/11/17 07:36:22;;;;;;;0.50;0.50;;;;;;;-0.36;83.29;100890.91;5087280;28;20044;-66
2023/11/17 07:38:51;;;;;;;1.13;1.13;;;;;;;-0.35;83.40;100893.50;5086868;28;20103;-66
2023/11/17 07:41:21;;;;;;;0.75;0.75;;;;;;;-0.30;83.38;100897.16;5086927;28;20020;-66
2023/11/17 07:43:47;;;;;;;0.50;0.50;;;;;;;-0.30;83.25;100896.25;5086963;28;20028;-66
2023/11/17 07:46:13;;;;;;;0.50;0.50;;;;;;;-0.30;83.21;100899.69;5085592;28;20507;-66
2023/11/17 07:48:43;;;;;;;0.63;0.63;;;;;;;-0.32;83.19;100895.34;5086751;28;20051;-65
2023/11/17 07:51:08;;;;;;;0.60;0.60;;;;;;;-0.29;83.47;100901.44;5085468;28;20036;-66
2023/11/17 07:53:34;;;;;;;0.70;0.70;;;;;;;-0.28;83.44;100904.88;5086386;28;20020;-66
2023/11/17 07:55:59;;;;;;;1.73;1.60;;;;;;;-0.25;83.51;100910.09;5086562;28;20451;-66
2023/11/17 07:58:26;;;;;;;1.00;1.00;;;;;;;-0.22;83.53;100914.50;5086561;28;20100;-66
2023/11/17 08:00:52;;;;;;;1.20;1.20;;;;;;;-0.18;83.31;100914.69;5086318;28;20024;-66
2023/11/17 12:39:06;;;;;;;0.60;0.60;;;;;;;1.45;80.15;101088.34;5069352;23;20127;-69
2023/11/17 12:41:33;;;;;;;0.55;0.55;;;;;;;1.47;79.74;101081.63;5065536;28;20029;-68
2023/11/17 12:43:58;;;;;;;0.82;0.73;;;;;;;1.43;79.82;101079.75;5065821;28;20523;-68
2023/11/17 12:46:27;;;;;;;0.70;0.70;;;;;;;1.44;79.79;101080.63;5065936;28;20078;-68
2023/11/17 12:48:53;;;;;;;1.60;1.50;;;;;;;1.47;79.51;101086.72;5065675;28;20032;-69
2023/11/17 12:51:27;;;;;;;0.60;0.60;;;;;;;1.46;79.49;101084.13;5065439;28;20029;-69
2023/11/17 12:53:58;;;;;;;0.60;0.60;;;;;;;1.44;79.49;101085.72;5065307;28;20021;-70
2023/11/17 12:56:25;;;;;;;1.37;1.03;;;;;;;1.46;79.42;101089.22;5065697;28;20055;-70
2023/11/17 12:58:55;;;;;;;1.42;1.38;;;;;;;1.40;79.42;101079.63;5065293;28;20025;-69
2023/11/17 13:01:22;;;;;;;1.50;0.73;;;;;;;1.41;79.42;101080.50;5065609;28;20099;-68
2023/11/17 13:03:51;;;;;;;1.20;1.00;;;;;;;1.44;79.21;101095.97;5065045;28;20028;-71
2023/11/17 13:06:18;;;;;;;1.17;1.13;;;;;;;1.43;79.03;101094.22;5065390;28;20561;-69
2023/11/17 13:08:44;;;;;;;0.57;0.57;;;;;;;1.38;79.12;101099.16;5064890;28;20530;-68
2023/11/17 13:11:11;;;;;;;0.70;0.70;;;;;;;1.32;78.85;101093.81;5064985;28;20028;-70
2023/11/17 13:13:39;;;;;;;3.22;0.85;;;;;;;1.32;78.90;101097.25;5065440;28;20025;-68
2023/11/17 13:16:09;;;;;;;1.63;1.52;;;;;;;1.28;79.12;101091.94;5065389;28;20104;-69
2023/11/17 13:18:36;;;;;;;0.60;0.60;;;;;;;1.31;78.92;101095.47;5065419;28;20025;-69
2023/11/17 13:21:03;;;;;;;1.20;0.77;;;;;;;1.36;79.12;101105.91;5065294;28;20025;-66
2023/11/17 13:23:29;;;;;;;1.75;1.65;;;;;;;1.35;78.90;101101.59;5064898;28;20058;-67
2023/11/17 13:26:10;;;;;;;0.70;0.70;;;;;;;1.34;78.98;101097.31;5064608;28;20028;-67
2023/11/17 13:28:43;;;;;;;0.73;0.73;;;;;;;1.40;79.00;101106.91;5065240;28;20051;-66
2023/11/17 13:31:17;;;;;;;1.35;1.25;;;;;;;1.36;78.54;101101.66;5065060;28;20028;-67
2023/11/17 13:33:43;;;;;;;1.15;1.15;;;;;;;1.30;78.74;101096.28;5080329;28;20056;-67
2023/11/17 13:36:09;;;;;;;0.60;0.60;;;;;;;1.37;78.88;101107.66;5065123;28;20326;-66
2023/11/17 13:38:56;;;;;;;4.85;1.30;;;;;;;1.38;79.02;101096.59;5080136;28;20086;-67
2023/11/17 13:41:26;;;;;;;1.75;1.63;;;;;;;1.33;78.93;101098.09;5065031;28;20504;-66
2023/11/17 13:43:53;;;;;;;1.08;1.08;;;;;;;1.37;78.83;101099.97;5065721;28;20033;-67
2023/11/17 13:46:20;;;;;;;4.00;1.58;;;;;;;1.35;78.64;101097.38;5068260;28;20614;-67
2023/11/17 13:48:45;;;;;;;1.23;1.13;;;;;;;1.39;78.76;101111.13;5068132;28;20033;-67
2023/11/17 13:51:15;;;;;;;0.63;0.63;;;;;;;1.38;78.92;101111.97;5068601;28;20016;-67
2023/11/17 13:53:40;;;;;;;1.02;1.02;;;;;;;1.30;78.59;101101.41;5068614;28;20039;-66
2023/11/17 13:56:08;;;;;;;0.70;0.70;;;;;;;1.32;78.73;101111.72;5067347;28;20021;-67
2023/11/17 13:58:34;;;;;;;1.80;0.93;;;;;;;1.28;78.71;101103.03;5068797;28;20078;-66
2023/11/17 14:01:00;;;;;;;0.50;0.50;;;;;;;1.29;78.77;101112.47;5083806;28;20024;-67
2023/11/17 14:03:28;;;;;;;0.55;0.55;;;;;;;1.27;78.79;101119.19;5083879;28;20024;-68
2023/11/17 14:05:54;;;;;;;1.17;1.08;;;;;;;1.30;78.79;101123.56;5068533;28;20025;-67
2023/11/17 14:08:19;;;;;;;1.33;1.05;;;;;;;1.24;78.66;101129.31;5067985;28;20346;-67
2023/11/17 14:10:45;;;;;;;0.65;0.65;;;;;;;1.19;78.65;101136.78;5068429;28;20041;-67
2023/11/17 14:13:13;;;;;;;1.30;1.20;;;;;;;1.19;78.78;101147.03;5068464;28;20231;-67
2023/11/17 14:15:39;;;;;;;1.40;1.30;;;;;;;1.14;78.70;101151.06;5068353;28;20025;-67
2023/11/17 14:18:09;;;;;;;1.40;1.30;;;;;;;1.07;78.76;101154.19;5067191;28;20071;-68
2023/11/17 14:20:36;;;;;;;0.70;0.70;;;;;;;1.08;78.71;101148.25;5068359;28;20029;-68
2023/11/17 14:23:03;;;;;;;1.08;0.98;;;;;;;1.07;78.75;101156.72;5067048;28;20025;-66
2023/11/17 14:25:29;;;;;;;1.17;1.05;;;;;;;0.99;78.72;101153.84;5083414;28;20431;-67
2023/11/17 14:27:54;;;;;;;0.50;0.50;;;;;;;0.91;78.71;101144.97;5068008;28;20464;-66
2023/11/17 14:30:19;;;;;;;0.77;0.50;;;;;;;0.92;78.71;101156.94;5068062;28;20029;-66
2023/11/17 14:32:45;;;;;;;0.93;0.93;;;;;;;0.85;78.82;101155.78;5068034;28;20032;-67
2023/11/17 14:35:10;;;;;;;2.35;1.45;;;;;;;0.90;78.60;101169.66;5067615;28;20150;-66
2023/11/17 14:37:36;;;;;;;0.80;0.80;;;;;;;0.84;78.62;101169.38;5066482;28;20047;-67
2023/11/17 14:40:06;;;;;;;0.50;0.50;;;;;;;0.83;78.77;101180.44;5067734;28;20088;-67
2023/11/17 14:42:32;;;;;;;0.60;0.60;;;;;;;0.77;78.70;101172.50;5068081;28;20036;-67
2023/11/17 14:44:57;;;;;;;2.78;2.15;;;;;;;0.68;78.53;101172.94;5067627;28;20025;-66
2023/11/17 14:47:24;;;;;;;0.70;0.70;;;;;;;0.69;78.68;101183.22;5066519;28;20051;-67
2023/11/17 14:49:50;;;;;;;1.70;1.60;;;;;;;0.69;78.70;101192.56;5067710;28;20035;-66
2023/11/17 14:52:15;;;;;;;0.55;0.55;;;;;;;0.63;78.61;101193.19;5067742;28;20041;-66
2023/11/17 14:54:41;;;;;;;4.10;0.65;;;;;;;0.60;78.90;101195.59;5067313;28;20032;-67
2023/11/17 14:57:07;;;;;;;1.08;1.08;;;;;;;0.55;78.84;101187.72;5067030;28;20052;-66
2023/11/17 14:59:33;;;;;;;0.73;0.73;;;;;;;0.54;78.75;101196.22;5067613;28;20024;-67
2023/11/17 15:01:59;;;;;;;1.40;1.13;;;;;;;0.51;78.79;101200.28;5067464;28;20040;-66
2023/11/17 15:04:25;;;;;;;0.50;0.50;;;;;;;0.42;79.00;101196.50;5067449;28;20025;-67
2023/11/17 15:06:53;;;;;;;0.90;0.90;;;;;;;0.41;79.06;101199.88;5066859;28;20021;-66
2023/11/17 15:09:20;;;;;;;1.30;0.98;;;;;;;0.36;79.09;101204.78;5066784;28;20092;-66
2023/11/17 15:11:46;;;;;;;0.77;0.77;;;;;;;0.34;79.20;101206.38;5067370;28;20063;-67
2023/11/17 15:14:17;;;;;;;0.60;0.60;;;;;;;0.31;79.21;101210.47;5067109;28;20024;-66
2023/11/17 15:16:43;;;;;;;0.70;0.70;;;;;;;0.30;79.07;101211.28;5082410;28;20032;-67
2023/11/17 15:19:12;;;;;;;2.90;1.73;;;;;;;0.22;79.11;101211.78;5066961;28;20029;-67
2023/11/17 15:21:43;;;;;;;0.90;0.90;;;;;;;0.22;79.32;101221.13;5065812;28;20052;-66
2023/11/17 15:24:09;;;;;;;0.70;0.70;;;;;;;0.21;79.27;101227.03;5067056;28;20045;-65
2023/11/17 15:26:35;;;;;;;1.08;1.02;;;;;;;0.13;79.31;101218.16;5066931;28;20025;-66
2023/11/17 15:29:00;;;;;;;0.82;0.82;;;;;;;0.15;79.24;101229.28;5066834;28;20029;-66
2023/11/17 15:31:29;;;;;;;2.85;2.03;;;;;;;0.10;79.28;101223.97;5066967;28;20017;-66
2023/11/17 15:34:13;;;;;;;0.68;0.63;;;;;;;0.09;79.36;101235.88;5067110;28;20032;-66
2023/11/17 15:36:40;;;;;;;1.00;1.00;;;;;;;0.07;79.51;101234.91;5066564;28;20103;-67
2023/11/17 15:39:14;;;;;;;0.50;0.50;;;;;;;-0.03;79.70;101223.38;5066348;28;20048;-66
2023/11/17 15:41:39;;;;;;;0.68;0.68;;;;;;;-0.02;79.75;101224.25;5066811;28;20036;-68
2023/11/17 15:44:05;;;;;;;0.75;0.75;;;;;;;-0.02;79.70;101230.22;5066829;28;20025;-66
2023/11/17 15:46:34;;;;;;;0.70;0.70;;;;;;;-0.01;79.63;101242.22;5066660;28;20373;-67
2023/11/17 15:49:03;;;;;;;0.70;0.60;;;;;;;-0.04;79.55;101243.72;5066827;28;20103;-68
2023/11/17 15:51:30;;;;;;;1.17;1.17;;;;;;;-0.05;79.68;101250.50;5066704;28;20028;-67
2023/11/17 15:53:55;;;;;;;1.13;1.05;;;;;;;-0.10;79.78;101248.53;5066556;28;20463;-67
2023/11/17 15:56:21;;;;;;;1.60;1.40;;;;;;;-0.09;79.87;101255.38;5066625;28;20029;-66
2023/11/17 15:58:46;;;;;;;0.93;0.90;;;;;;;-0.12;79.88;101253.56;5066277;28;20097;-66
2023/11/17 16:01:12;;;;;;;0.60;0.60;;;;;;;-0.16;79.96;101261.88;5066250;28;20021;-67
2023/11/17 16:03:39;;;;;;;1.17;0.90;;;;;;;-0.27;80.00;101252.00;5066355;28;20029;-66